createdAt,value
2023-03-25T00:02:21.787Z,6.72
2023-03-25T00:04:52.690Z,8.18
2023-03-25T00:07:21.245Z,6.22
2023-03-25T00:09:48.062Z,6.20
2023-03-25T00:12:16.918Z,5.35
2023-03-25T00:14:54.096Z,5.28
2023-03-25T00:17:26.391Z,7.75
2023-03-25T00:19:52.873Z,6.88
2023-03-25T00:22:19.458Z,4.95
2023-03-25T00:24:45.931Z,6.30
2023-03-25T00:27:14.254Z,7.30
2023-03-25T00:29:44.283Z,5.68
2023-03-25T00:32:11.427Z,6.35
2023-03-25T00:34:41.823Z,5.95
2023-03-25T00:37:09.584Z,6.13
2023-03-25T00:39:37.892Z,6.45
2023-03-25T00:42:04.722Z,6.07
2023-03-25T00:44:31.865Z,6.07
2023-03-25T00:46:58.354Z,6.35
2023-03-25T00:49:25.057Z,7.13
2023-03-25T00:51:53.955Z,5.00
2023-03-25T00:54:22.283Z,5.55
2023-03-25T00:56:50.752Z,5.50
2023-03-25T00:59:17.263Z,7.63
2023-03-25T01:01:46.093Z,7.53
2023-03-25T01:04:12.787Z,5.95
2023-03-25T01:06:51.638Z,5.22
2023-03-25T01:09:20.276Z,5.10
2023-03-25T01:11:48.623Z,8.18
2023-03-25T01:14:20.997Z,6.80
2023-03-25T01:16:47.599Z,5.22
2023-03-25T01:19:14.526Z,5.05
2023-03-25T01:21:41.170Z,6.95
2023-03-25T01:24:12.328Z,7.40
2023-03-25T01:29:07.840Z,5.13
2023-03-25T01:31:34.300Z,5.10
2023-03-25T01:34:00.798Z,5.25
2023-03-25T01:36:31.044Z,6.93
2023-03-25T01:38:59.564Z,6.80
2023-03-25T01:41:35.736Z,6.55
2023-03-25T01:44:08.234Z,7.10
2023-03-25T01:46:37.846Z,7.07
2023-03-25T01:49:09.077Z,5.97
2023-03-25T01:51:40.425Z,7.10
2023-03-25T01:54:07.350Z,5.07
2023-03-25T01:56:38.362Z,6.20
2023-03-25T01:59:06.840Z,7.15
2023-03-25T02:01:34.194Z,6.75
2023-03-25T02:04:09.886Z,8.38
2023-03-25T02:06:40.304Z,10.27
2023-03-25T02:09:09.068Z,6.80
2023-03-25T02:11:36.157Z,11.45
2023-03-25T02:14:07.022Z,6.72
2023-03-25T02:16:33.390Z,6.75
2023-03-25T02:19:05.433Z,8.43
2023-03-25T02:21:46.063Z,6.97
2023-03-25T02:24:25.770Z,6.05
2023-03-25T02:27:01.694Z,7.07
2023-03-25T02:29:58.943Z,8.88
2023-03-25T02:32:47.165Z,7.05
2023-03-25T02:35:49.783Z,8.13
2023-03-25T02:38:26.547Z,7.00
2023-03-25T02:41:16.121Z,7.30
2023-03-25T02:43:47.086Z,10.13
2023-03-25T02:46:17.279Z,7.65
2023-03-25T02:48:56.678Z,8.67
2023-03-25T02:51:36.284Z,11.45
2023-03-25T02:54:09.067Z,8.27
2023-03-25T02:56:37.832Z,6.20
2023-03-25T02:59:05.592Z,6.70
2023-03-25T03:01:34.768Z,6.45
2023-03-25T03:04:01.556Z,8.50
2023-03-25T03:06:28.639Z,8.65
2023-03-25T03:09:30.642Z,9.07
2023-03-25T03:11:57.032Z,8.60
2023-03-25T03:14:43.945Z,8.77
2023-03-25T03:17:38.159Z,8.75
2023-03-25T03:20:18.095Z,7.78
2023-03-25T03:23:02.918Z,9.07
2023-03-25T03:25:55.165Z,8.27
2023-03-25T03:28:41.081Z,7.78
2023-03-25T03:31:48.855Z,9.98
2023-03-25T03:34:20.419Z,6.60
2023-03-25T03:36:52.159Z,9.23
2023-03-25T03:39:27.765Z,11.32
2023-03-25T03:42:00.422Z,10.25
2023-03-25T03:44:33.088Z,10.15
2023-03-25T03:47:07.494Z,11.35
2023-03-25T03:49:39.305Z,7.28
2023-03-25T03:52:14.033Z,9.68
2023-03-25T03:54:49.184Z,8.52
2023-03-25T03:57:42.174Z,10.40
2023-03-25T04:00:15.471Z,7.75
2023-03-25T04:02:47.776Z,7.13
2023-03-25T04:05:17.943Z,8.93
2023-03-25T04:07:54.657Z,8.15
2023-03-25T04:10:34.704Z,7.35
2023-03-25T04:13:05.797Z,7.35
2023-03-25T04:15:32.374Z,7.90
2023-03-25T04:17:59.353Z,7.07
2023-03-25T04:20:29.678Z,9.18
2023-03-25T04:22:56.106Z,9.10
2023-03-25T04:25:25.227Z,9.18
2023-03-25T04:27:53.722Z,15.63
2023-03-25T04:30:21.361Z,9.73
2023-03-25T04:32:47.856Z,14.27
2023-03-25T04:35:18.665Z,8.70
2023-03-25T04:37:48.778Z,7.50
2023-03-25T04:40:19.208Z,9.07
2023-03-25T04:42:46.630Z,9.30
2023-03-25T04:45:16.618Z,9.07
2023-03-25T04:47:47.165Z,8.93
2023-03-25T04:50:28.527Z,9.85
2023-03-25T04:55:25.602Z,7.40
2023-03-25T04:57:54.276Z,8.35
2023-03-25T05:00:24.143Z,11.05
2023-03-25T05:02:54.116Z,9.75
2023-03-25T05:05:24.117Z,8.73
2023-03-25T05:07:53.135Z,8.20
2023-03-25T05:10:24.072Z,7.95
2023-03-25T05:12:51.009Z,9.25
2023-03-25T05:15:17.679Z,8.40
2023-03-25T05:17:44.994Z,13.93
2023-03-25T05:20:12.389Z,7.78
2023-03-25T05:22:39.368Z,7.22
2023-03-25T05:25:06.894Z,8.65
2023-03-25T05:27:34.524Z,7.82
2023-03-25T05:30:01.511Z,8.82
2023-03-25T05:32:35.524Z,8.10
2023-03-25T05:35:05.504Z,10.50
2023-03-25T05:37:31.952Z,8.98
2023-03-25T05:39:58.726Z,12.40
2023-03-25T05:42:25.611Z,8.85
2023-03-25T05:44:53.245Z,11.20
2023-03-25T05:47:24.901Z,8.85
2023-03-25T05:49:53.855Z,15.10
2023-03-25T05:52:24.552Z,7.75
2023-03-25T05:54:51.772Z,7.88
2023-03-25T05:57:18.389Z,9.05
2023-03-25T05:59:45.552Z,9.30
2023-03-25T06:02:15.139Z,13.38
2023-03-25T06:04:42.653Z,8.15
2023-03-25T06:07:19.930Z,12.38
2023-03-25T06:09:47.705Z,11.95
2023-03-25T06:12:20.017Z,7.60
2023-03-25T06:14:47.904Z,12.10
2023-03-25T06:17:19.059Z,12.65
2023-03-25T06:19:45.685Z,7.97
2023-03-25T06:22:12.565Z,6.60
2023-03-25T06:24:39.789Z,7.88
2023-03-25T06:27:09.343Z,10.48
2023-03-25T06:29:38.932Z,9.40
2023-03-25T06:32:05.922Z,9.65
2023-03-25T06:34:35.234Z,6.07
2023-03-25T06:37:02.065Z,7.25
2023-03-25T06:39:33.654Z,12.13
2023-03-25T06:42:01.170Z,8.55
2023-03-25T06:44:28.041Z,10.95
2023-03-25T06:46:54.895Z,9.82
2023-03-25T06:49:21.733Z,8.57
2023-03-25T06:51:49.132Z,11.77
2023-03-25T06:54:15.680Z,9.85
2023-03-25T06:56:42.369Z,9.95
2023-03-25T06:59:10.750Z,8.27
2023-03-25T07:01:37.396Z,12.55
2023-03-25T07:04:03.865Z,9.48
2023-03-25T07:06:31.364Z,10.77
2023-03-25T07:08:57.878Z,8.85
2023-03-25T07:11:30.483Z,9.05
2023-03-25T07:13:57.001Z,10.55
2023-03-25T07:16:24.676Z,10.88
2023-03-25T07:18:52.030Z,14.68
2023-03-25T07:21:19.292Z,8.80
2023-03-25T07:23:45.922Z,7.63
2023-03-25T07:26:13.499Z,9.32
2023-03-25T07:28:40.871Z,13.00
2023-03-25T07:31:13.132Z,9.57
2023-03-25T07:33:40.202Z,10.13
2023-03-25T07:36:08.202Z,7.22
2023-03-25T07:38:35.202Z,12.43
2023-03-25T07:41:08.705Z,7.47
2023-03-25T07:43:35.380Z,10.50
2023-03-25T07:46:02.370Z,6.57
2023-03-25T07:48:29.385Z,10.40
2023-03-25T07:50:56.058Z,12.35
2023-03-25T07:53:22.996Z,6.88
2023-03-25T07:55:52.748Z,14.77
2023-03-25T07:58:20.405Z,9.07
2023-03-25T08:00:47.322Z,7.68
2023-03-25T08:03:15.658Z,8.40
2023-03-25T08:05:48.989Z,8.13
2023-03-25T08:08:15.945Z,11.32
2023-03-25T08:10:44.349Z,10.52
2023-03-25T08:13:12.064Z,10.93
2023-03-25T08:15:41.778Z,8.27
2023-03-25T08:18:08.413Z,12.43
2023-03-25T08:20:35.827Z,10.63
2023-03-25T08:23:03.013Z,11.23
2023-03-25T08:25:31.138Z,8.18
2023-03-25T08:27:57.877Z,8.27
2023-03-25T08:30:24.517Z,6.80
2023-03-25T08:32:54.691Z,8.27
2023-03-25T08:35:24.183Z,11.23
2023-03-25T08:37:51.453Z,13.82
2023-03-25T08:40:18.042Z,5.40
2023-03-25T08:42:44.817Z,8.45
2023-03-25T08:45:12.282Z,9.75
2023-03-25T08:47:39.456Z,9.30
2023-03-25T08:50:06.438Z,9.48
2023-03-25T08:52:33.139Z,10.30
2023-03-25T08:54:59.814Z,8.07
2023-03-25T08:57:30.284Z,8.98
2023-03-25T08:59:58.089Z,7.40
2023-03-25T09:02:26.055Z,9.60
2023-03-25T09:04:53.081Z,10.85
2023-03-25T09:07:20.495Z,8.52
2023-03-25T09:09:47.327Z,10.45
2023-03-25T09:12:14.019Z,12.75
2023-03-25T09:14:40.579Z,11.57
2023-03-25T09:17:07.493Z,8.27
2023-03-25T09:19:35.452Z,8.10
2023-03-25T09:22:02.218Z,11.88
2023-03-25T09:24:28.813Z,8.63
2023-03-25T09:26:55.334Z,9.48
2023-03-25T09:29:21.980Z,9.75
2023-03-25T09:31:48.464Z,9.93
2023-03-25T09:34:16.167Z,12.32
2023-03-25T09:36:43.092Z,7.88
2023-03-25T09:39:09.630Z,8.05
2023-03-25T09:42:17.511Z,10.98
2023-03-25T09:44:53.563Z,8.38
2023-03-25T09:47:23.899Z,7.28
2023-03-25T09:49:56.439Z,9.82
2023-03-25T09:52:28.159Z,11.05
2023-03-25T09:55:02.311Z,11.82
2023-03-25T09:57:33.556Z,10.15
2023-03-25T10:00:04.551Z,10.65
2023-03-25T10:05:31.379Z,7.13
2023-03-25T10:08:06.720Z,9.90
2023-03-25T10:10:59.170Z,12.25
2023-03-25T10:13:31.272Z,5.47
2023-03-25T10:16:16.184Z,6.72
2023-03-25T10:19:18.185Z,10.20
2023-03-25T10:21:58.104Z,8.25
2023-03-25T10:24:48.483Z,8.15
2023-03-25T10:27:29.590Z,15.60
2023-03-25T10:32:51.814Z,7.07
2023-03-25T10:35:21.101Z,5.40
2023-03-25T10:37:51.780Z,8.02
2023-03-25T10:40:29.800Z,11.82
2023-03-25T10:43:04.539Z,9.55
2023-03-25T10:45:32.308Z,6.50
2023-03-25T10:48:09.566Z,10.90
2023-03-25T10:50:36.918Z,6.65
2023-03-25T10:53:04.482Z,8.93
2023-03-25T10:55:35.439Z,11.23
2023-03-25T10:58:02.982Z,9.88
2023-03-25T11:00:30.473Z,4.40
2023-03-25T11:02:57.366Z,3.85
2023-03-25T11:05:28.586Z,11.48
2023-03-25T11:08:06.648Z,6.43
2023-03-25T11:10:38.830Z,3.90
2023-03-25T11:13:13.055Z,4.85
2023-03-25T11:15:41.368Z,4.50
2023-03-25T11:18:14.012Z,2.95
2023-03-25T11:20:48.012Z,4.93
2023-03-25T11:23:25.647Z,3.95
2023-03-25T11:25:54.352Z,4.32
2023-03-25T11:28:56.667Z,4.45
2023-03-25T11:31:26.226Z,3.85
2023-03-25T11:34:10.981Z,2.58
2023-03-25T11:36:59.759Z,3.33
2023-03-25T11:39:33.095Z,4.45
2023-03-25T11:42:00.717Z,2.30
2023-03-25T11:44:33.014Z,2.85
2023-03-25T11:47:06.092Z,2.25
2023-03-25T11:49:38.557Z,3.40
2023-03-25T11:52:09.375Z,4.03
2023-03-25T11:54:37.335Z,4.07
2023-03-25T11:57:07.306Z,2.88
2023-03-25T11:59:43.096Z,3.40
2023-03-25T12:02:24.147Z,3.30
2023-03-25T12:05:16.551Z,3.72
2023-03-25T12:07:49.318Z,2.30
2023-03-25T12:10:33.717Z,3.25
2023-03-25T12:13:09.254Z,2.25
2023-03-25T12:15:35.844Z,3.00
2023-03-25T12:18:30.463Z,3.90
2023-03-25T12:21:04.062Z,2.90
2023-03-25T12:23:39.750Z,3.20
2023-03-25T12:26:57.648Z,3.53
2023-03-25T12:29:45.615Z,1.63
2023-03-25T12:32:24.622Z,5.07
2023-03-25T12:35:03.928Z,2.22
2023-03-25T12:37:45.532Z,2.65
2023-03-25T12:40:45.657Z,1.70
2023-03-25T12:43:24.231Z,1.38
2023-03-25T12:46:09.431Z,3.13
2023-03-25T12:49:13.643Z,1.55
2023-03-25T12:51:58.705Z,0.82
2023-03-25T12:54:57.396Z,3.03
2023-03-25T12:57:47.675Z,5.45
2023-03-25T13:00:32.623Z,1.08
2023-03-25T13:03:17.855Z,1.15
2023-03-25T13:06:04.287Z,1.58
2023-03-25T13:08:47.127Z,2.55
2023-03-25T13:11:45.819Z,2.70
2023-03-25T13:14:21.084Z,3.35
2023-03-25T13:16:51.192Z,1.98
2023-03-25T13:19:21.442Z,8.50
2023-03-25T13:21:52.706Z,2.22
2023-03-25T13:24:23.655Z,0.82
2023-03-25T13:29:35.673Z,4.57
2023-03-25T13:32:10.250Z,4.53
2023-03-25T13:34:44.668Z,5.78
2023-03-25T13:37:29.299Z,3.20
2023-03-25T13:40:10.715Z,4.03
2023-03-25T13:42:42.929Z,1.67
2023-03-25T13:45:17.107Z,2.72
2023-03-25T13:47:50.577Z,3.45
2023-03-25T13:50:28.232Z,2.13
2023-03-25T13:53:14.888Z,4.00
2023-03-25T13:55:48.282Z,5.15
2023-03-25T13:58:33.108Z,3.38
2023-03-25T14:01:13.778Z,3.95
2023-03-25T14:03:56.684Z,2.42
2023-03-25T14:06:56.235Z,4.05
2023-03-25T14:09:41.669Z,2.88
2023-03-25T14:12:23.814Z,3.58
2023-03-25T14:14:58.794Z,3.25
2023-03-25T14:17:27.575Z,2.88
2023-03-25T14:19:58.208Z,1.35
2023-03-25T14:22:29.774Z,2.15
2023-03-25T14:24:57.004Z,2.92
2023-03-25T14:27:29.732Z,1.35
2023-03-25T14:30:01.016Z,4.20
2023-03-25T14:32:38.722Z,4.82
2023-03-25T14:35:39.346Z,3.00
2023-03-25T14:38:05.938Z,2.75
2023-03-25T14:40:54.811Z,2.58
2023-03-25T14:43:33.073Z,1.33
2023-03-25T14:46:11.452Z,4.05
2023-03-25T14:48:45.835Z,4.38
2023-03-25T14:51:44.696Z,2.13
2023-03-25T14:54:29.816Z,1.80
2023-03-25T14:57:14.037Z,3.42
2023-03-25T15:00:01.968Z,2.95
2023-03-25T15:02:31.884Z,2.78
2023-03-25T15:05:02.309Z,3.43
2023-03-25T15:07:47.077Z,5.10
2023-03-25T15:10:28.034Z,1.00
2023-03-25T15:13:05.529Z,1.67
2023-03-25T15:15:53.905Z,4.78
2023-03-25T15:18:35.788Z,19.60
2023-03-25T15:21:04.486Z,2.55
2023-03-25T15:23:49.622Z,2.55
2023-03-25T15:26:40.521Z,1.58
2023-03-25T15:29:37.980Z,0.98
2023-03-25T15:32:23.230Z,3.28
2023-03-25T15:35:27.455Z,4.07
2023-03-25T15:38:27.699Z,3.42
2023-03-25T15:41:35.588Z,0.90
2023-03-25T15:44:29.690Z,1.08
2023-03-25T15:46:59.122Z,21.98
2023-03-25T15:49:40.889Z,3.05
2023-03-25T15:52:10.839Z,1.52
2023-03-25T15:55:19.317Z,8.10
2023-03-25T15:57:56.154Z,4.53
2023-03-25T16:00:27.844Z,2.17
2023-03-25T16:03:06.379Z,2.55
2023-03-25T16:05:36.188Z,1.75
2023-03-25T16:08:09.879Z,2.20
2023-03-25T16:10:36.593Z,1.25
2023-03-25T16:13:10.739Z,3.22
2023-03-25T16:15:38.459Z,1.67
2023-03-25T16:18:07.286Z,7.55
2023-03-25T16:20:36.415Z,1.20
2023-03-25T16:23:04.943Z,4.18
2023-03-25T16:25:41.058Z,2.45
2023-03-25T16:28:15.573Z,0.77
2023-03-25T16:30:44.750Z,1.23
2023-03-25T16:33:13.833Z,2.17
2023-03-25T16:35:51.238Z,0.47
2023-03-25T16:38:22.746Z,1.83
2023-03-25T16:40:50.204Z,1.95
2023-03-25T16:43:19.404Z,1.50
2023-03-25T16:45:48.200Z,2.75
2023-03-25T16:48:33.606Z,4.10
2023-03-25T16:51:25.539Z,1.83
2023-03-25T16:53:55.978Z,2.22
2023-03-25T16:56:32.365Z,0.60
2023-03-25T16:59:05.180Z,2.45
2023-03-25T17:01:42.582Z,2.70
2023-03-25T17:04:26.140Z,17.50
2023-03-25T17:07:01.152Z,20.83
2023-03-25T17:09:34.362Z,14.02
2023-03-25T17:12:06.405Z,19.73
2023-03-25T17:14:39.692Z,15.68
2023-03-25T17:17:21.645Z,13.02
2023-03-25T17:19:52.006Z,8.77
2023-03-25T17:22:42.497Z,7.40
2023-03-25T17:25:34.862Z,4.25
2023-03-25T17:28:26.707Z,2.72
2023-03-25T17:30:53.529Z,4.35
2023-03-25T17:33:34.131Z,3.58
2023-03-25T17:36:03.513Z,2.40
2023-03-25T17:38:36.552Z,5.10
2023-03-25T17:41:09.466Z,2.35
2023-03-25T17:43:45.995Z,8.27
2023-03-25T17:46:17.870Z,13.32
2023-03-25T17:48:44.422Z,7.97
2023-03-25T17:51:13.210Z,12.85
2023-03-25T17:53:40.314Z,8.38
2023-03-25T17:56:07.211Z,12.40
2023-03-25T17:58:33.724Z,6.30
2023-03-25T18:01:01.226Z,10.05
2023-03-25T18:03:30.556Z,7.70
2023-03-25T18:05:58.489Z,8.77
2023-03-25T18:08:25.264Z,8.13
2023-03-25T18:10:53.322Z,15.13
2023-03-25T18:13:27.266Z,9.38
2023-03-25T18:15:55.055Z,8.57
2023-03-25T18:18:25.016Z,9.63
2023-03-25T18:20:53.532Z,9.10
2023-03-25T18:23:20.400Z,12.18
2023-03-25T18:25:47.907Z,9.77
2023-03-25T18:28:14.937Z,20.63
2023-03-25T18:30:50.823Z,15.07
2023-03-25T18:33:18.059Z,17.90
2023-03-25T18:35:45.842Z,22.15
2023-03-25T18:38:17.790Z,13.10
2023-03-25T18:40:44.481Z,12.35
2023-03-25T18:43:10.890Z,17.83
2023-03-25T18:45:37.684Z,9.20
2023-03-25T18:48:04.766Z,9.65
2023-03-25T18:50:34.614Z,9.20
2023-03-25T18:53:01.162Z,3.90
2023-03-25T18:55:28.925Z,2.65
2023-03-25T18:57:55.891Z,2.08
2023-03-25T19:00:25.901Z,6.05
2023-03-25T19:02:53.182Z,2.38
2023-03-25T19:05:24.495Z,4.82
2023-03-25T19:07:50.971Z,2.88
2023-03-25T19:10:26.167Z,2.75
2023-03-25T19:12:52.834Z,5.13
2023-03-25T19:15:21.518Z,7.90
2023-03-25T19:17:49.074Z,6.18
2023-03-25T19:20:21.989Z,8.23
2023-03-25T19:22:48.875Z,7.22
2023-03-25T19:25:16.497Z,9.38
2023-03-25T19:27:44.143Z,4.25
2023-03-25T19:30:15.226Z,7.95
2023-03-25T19:35:11.041Z,4.38
2023-03-25T19:37:38.064Z,12.93
2023-03-25T19:40:08.786Z,7.43
2023-03-25T19:42:39.249Z,6.78
2023-03-25T19:45:08.260Z,4.85
2023-03-25T19:47:42.105Z,2.55
2023-03-25T19:50:11.044Z,4.93
2023-03-25T19:52:37.971Z,2.58
2023-03-25T19:55:06.268Z,2.50
2023-03-25T19:57:33.977Z,2.53
2023-03-25T20:00:01.401Z,3.90
2023-03-25T20:02:28.204Z,3.20
2023-03-25T20:04:54.730Z,9.23
2023-03-25T20:07:21.405Z,6.03
2023-03-25T20:09:47.826Z,5.28
2023-03-25T20:12:14.246Z,6.10
2023-03-25T20:14:40.782Z,7.15
2023-03-25T20:17:07.222Z,3.63
2023-03-25T20:19:33.711Z,4.45
2023-03-25T20:22:00.482Z,3.22
2023-03-25T20:24:26.930Z,3.58
2023-03-25T20:26:53.360Z,3.35
2023-03-25T20:29:19.886Z,7.05
2023-03-25T20:31:46.454Z,3.90
2023-03-25T20:34:12.955Z,7.90
2023-03-25T20:36:39.494Z,4.97
2023-03-25T20:39:06.061Z,4.20
2023-03-25T20:41:33.407Z,2.63
2023-03-25T20:44:00.245Z,3.33
2023-03-25T20:46:31.060Z,4.70
2023-03-25T20:48:58.322Z,6.20
2023-03-25T20:51:25.034Z,5.43
2023-03-25T20:53:53.152Z,6.03
2023-03-25T20:56:19.719Z,6.70
2023-03-25T20:58:46.717Z,3.38
2023-03-25T21:01:15.335Z,3.72
2023-03-25T21:03:42.770Z,5.25
2023-03-25T21:06:22.992Z,4.43
2023-03-25T21:08:51.096Z,3.20
2023-03-25T21:11:17.549Z,4.68
2023-03-25T21:13:44.563Z,5.75
2023-03-25T21:16:11.208Z,4.78
2023-03-25T21:18:37.794Z,5.38
2023-03-25T21:21:04.985Z,3.97
2023-03-25T21:23:32.042Z,7.50
2023-03-25T21:26:00.920Z,9.32
2023-03-25T21:28:29.243Z,5.45
2023-03-25T21:31:03.838Z,5.63
2023-03-25T21:33:37.095Z,7.43
2023-03-25T21:36:08.416Z,5.43
2023-03-25T21:38:36.464Z,4.40
2023-03-25T21:41:05.012Z,4.15
2023-03-25T21:43:32.896Z,5.55
2023-03-25T21:46:05.518Z,6.13
2023-03-25T21:48:33.371Z,10.50
2023-03-25T21:51:01.309Z,2.88
2023-03-25T21:53:32.111Z,3.65
2023-03-25T21:56:05.628Z,4.88
2023-03-25T21:58:36.182Z,5.10
2023-03-25T22:01:05.703Z,3.97
2023-03-25T22:03:35.424Z,3.67
2023-03-25T22:06:13.459Z,4.18
2023-03-25T22:08:40.441Z,6.40
2023-03-25T22:11:12.883Z,5.75
2023-03-25T22:13:40.364Z,2.92
2023-03-25T22:16:08.309Z,5.40
2023-03-25T22:18:35.574Z,3.70
2023-03-25T22:21:20.439Z,4.82
2023-03-25T22:23:48.240Z,6.53
2023-03-25T22:26:16.708Z,4.90
2023-03-25T22:28:44.184Z,8.07
2023-03-25T22:31:11.905Z,5.07
2023-03-25T22:33:39.365Z,7.93
2023-03-25T22:36:11.838Z,3.50
2023-03-25T22:38:46.082Z,5.45
2023-03-25T22:41:16.517Z,7.93
2023-03-25T22:43:44.877Z,3.58
2023-03-25T22:46:11.707Z,2.47
2023-03-25T22:48:41.550Z,2.70
2023-03-25T22:51:10.790Z,10.02
2023-03-25T22:53:37.253Z,9.27
2023-03-25T22:56:03.981Z,4.63
2023-03-25T22:58:31.627Z,7.30
2023-03-25T23:01:00.754Z,5.72
2023-03-25T23:03:28.553Z,4.03
2023-03-25T23:05:57.598Z,4.75
2023-03-25T23:08:31.694Z,3.95
2023-03-25T23:11:08.471Z,4.10
2023-03-25T23:13:35.528Z,3.03
2023-03-25T23:16:14.549Z,6.03
2023-03-25T23:18:41.943Z,5.07
2023-03-25T23:21:14.680Z,4.30
2023-03-25T23:23:52.706Z,4.00
2023-03-25T23:26:39.308Z,5.43
2023-03-25T23:29:09.590Z,3.13
2023-03-25T23:31:37.604Z,3.92
2023-03-25T23:34:07.271Z,3.97
2023-03-25T23:36:36.217Z,3.63
2023-03-25T23:39:08.133Z,3.65
2023-03-25T23:41:35.218Z,3.03
2023-03-25T23:44:02.122Z,3.92
2023-03-25T23:46:29.358Z,7.53
2023-03-25T23:48:55.769Z,3.42
2023-03-25T23:51:24.258Z,6.18
2023-03-25T23:53:51.891Z,4.05
2023-03-25T23:56:21.229Z,6.15
2023-03-25T23:58:47.660Z,7.75
